sensor_id;sensor_type;location;lat;lon;timestamp;temperature;humidity
11934;DHT22;6026;48.784;9.198;2023-12-14T00:00:43;6.10;99.90
11934;DHT22;6026;48.784;9.198;2023-12-14T00:03:08;6.10;99.90
11934;DHT22;6026;48.784;9.198;2023-12-14T00:05:34;6.20;99.90
11934;DHT22;6026;48.784;9.198;2023-12-14T00:08:00;6.20;99.90
11934;DHT22;6026;48.784;9.198;2023-12-14T00:10:26;6.20;99.90
11934;DHT22;6026;48.784;9.198;2023-12-14T00:12:51;6.20;99.90
11934;DHT22;6026;48.784;9.198;2023-12-14T00:15:18;6.20;99.90
11934;DHT22;6026;48.784;9.198;2023-12-14T00:17:44;6.20;99.90
11934;DHT22;6026;48.784;9.198;2023-12-14T00:20:09;6.20;99.90
11934;DHT22;6026;48.784;9.198;2023-12-14T00:22:36;6.20;99.90
11934;DHT22;6026;48.784;9.198;2023-12-14T00:25:04;6.20;99.90
11934;DHT22;6026;48.784;9.198;2023-12-14T00:27:30;6.20;99.90
11934;DHT22;6026;48.784;9.198;2023-12-14T00:29:55;6.20;99.90
11934;DHT22;6026;48.784;9.198;2023-12-14T00:32:21;6.20;99.90
11934;DHT22;6026;48.784;9.198;2023-12-14T00:34:46;6.30;99.90
11934;DHT22;6026;48.784;9.198;2023-12-14T00:37:12;6.30;99.90
11934;DHT22;6026;48.784;9.198;2023-12-14T00:39:37;6.30;99.90
11934;DHT22;6026;48.784;9.198;2023-12-14T00:42:03;6.30;99.90
11934;DHT22;6026;48.784;9.198;2023-12-14T00:44:29;6.30;99.90
11934;DHT22;6026;48.784;9.198;2023-12-14T00:46:54;6.30;99.90
11934;DHT22;6026;48.784;9.198;2023-12-14T00:49:20;6.30;99.90
11934;DHT22;6026;48.784;9.198;2023-12-14T00:51:45;6.30;99.90
11934;DHT22;6026;48.784;9.198;2023-12-14T00:54:11;6.30;99.90
11934;DHT22;6026;48.784;9.198;2023-12-14T00:56:37;6.30;99.90
11934;DHT22;6026;48.784;9.198;2023-12-14T00:59:02;6.30;99.90
11934;DHT22;6026;48.784;9.198;2023-12-14T01:01:28;6.30;99.90
11934;DHT22;6026;48.784;9.198;2023-12-14T01:03:53;6.30;99.90
11934;DHT22;6026;48.784;9.198;2023-12-14T01:06:19;6.30;99.90
11934;DHT22;6026;48.784;9.198;2023-12-14T01:08:44;6.20;99.90
11934;DHT22;6026;48.784;9.198;2023-12-14T01:11:10;6.30;99.90
11934;DHT22;6026;48.784;9.198;2023-12-14T01:13:36;6.20;99.90
11934;DHT22;6026;48.784;9.198;2023-12-14T01:16:01;6.20;99.90
11934;DHT22;6026;48.784;9.198;2023-12-14T01:18:27;6.20;99.90
11934;DHT22;6026;48.784;9.198;2023-12-14T01:20:52;6.20;99.90
11934;DHT22;6026;48.784;9.198;2023-12-14T01:23:18;6.20;99.90
11934;DHT22;6026;48.784;9.198;2023-12-14T01:25:44;6.20;99.90
11934;DHT22;6026;48.784;9.198;2023-12-14T01:28:09;6.20;99.90
11934;DHT22;6026;48.784;9.198;2023-12-14T01:30:35;6.20;99.90
11934;DHT22;6026;48.784;9.198;2023-12-14T01:33:00;6.20;99.90
11934;DHT22;6026;48.784;9.198;2023-12-14T01:35:26;6.20;99.90
11934;DHT22;6026;48.784;9.198;2023-12-14T01:37:51;6.20;99.90
11934;DHT22;6026;48.784;9.198;2023-12-14T01:40:19;6.20;99.90
11934;DHT22;6026;48.784;9.198;2023-12-14T01:42:45;6.20;99.90
11934;DHT22;6026;48.784;9.198;2023-12-14T01:45:10;6.20;99.90
11934;DHT22;6026;48.784;9.198;2023-12-14T01:47:36;6.20;99.90
11934;DHT22;6026;48.784;9.198;2023-12-14T01:50:02;6.20;99.90
11934;DHT22;6026;48.784;9.198;2023-12-14T01:52:27;6.20;99.90
11934;DHT22;6026;48.784;9.198;2023-12-14T01:54:53;6.20;99.90
11934;DHT22;6026;48.784;9.198;2023-12-14T01:57:20;6.20;99.90
11934;DHT22;6026;48.784;9.198;2023-12-14T01:59:46;6.20;99.90
11934;DHT22;6026;48.784;9.198;2023-12-14T02:02:11;6.30;99.90
11934;DHT22;6026;48.784;9.198;2023-12-14T02:04:37;6.30;99.90
11934;DHT22;6026;48.784;9.198;2023-12-14T02:07:03;6.30;99.90
11934;DHT22;6026;48.784;9.198;2023-12-14T02:09:28;6.20;99.90
11934;DHT22;6026;48.784;9.198;2023-12-14T02:11:54;6.20;99.90
11934;DHT22;6026;48.784;9.198;2023-12-14T02:14:22;6.30;99.90
11934;DHT22;6026;48.784;9.198;2023-12-14T02:16:48;6.20;99.90
11934;DHT22;6026;48.784;9.198;2023-12-14T02:19:14;6.10;99.90
11934;DHT22;6026;48.784;9.198;2023-12-14T02:21:40;6.10;99.90
11934;DHT22;6026;48.784;9.198;2023-12-14T02:24:05;6.10;99.90
11934;DHT22;6026;48.784;9.198;2023-12-14T02:26:31;6.10;99.90
11934;DHT22;6026;48.784;9.198;2023-12-14T02:28:57;6.20;99.90
11934;DHT22;6026;48.784;9.198;2023-12-14T02:31:23;6.10;99.90
11934;DHT22;6026;48.784;9.198;2023-12-14T02:33:48;6.20;99.90
11934;DHT22;6026;48.784;9.198;2023-12-14T02:36:14;6.20;99.90
11934;DHT22;6026;48.784;9.198;2023-12-14T02:38:40;6.20;99.90
11934;DHT22;6026;48.784;9.198;2023-12-14T02:41:05;6.20;99.90
11934;DHT22;6026;48.784;9.198;2023-12-14T02:43:31;6.20;99.90
11934;DHT22;6026;48.784;9.198;2023-12-14T02:45:57;6.30;99.90
11934;DHT22;6026;48.784;9.198;2023-12-14T02:48:27;6.20;99.90
11934;DHT22;6026;48.784;9.198;2023-12-14T02:50:54;6.20;99.90
11934;DHT22;6026;48.784;9.198;2023-12-14T02:53:19;6.20;99.90
11934;DHT22;6026;48.784;9.198;2023-12-14T02:55:45;6.20;99.90
11934;DHT22;6026;48.784;9.198;2023-12-14T02:58:11;6.20;99.90
11934;DHT22;6026;48.784;9.198;2023-12-14T03:00:36;6.20;99.90
11934;DHT22;6026;48.784;9.198;2023-12-14T03:03:02;6.20;99.90
11934;DHT22;6026;48.784;9.198;2023-12-14T03:05:27;6.30;99.90
11934;DHT22;6026;48.784;9.198;2023-12-14T03:07:53;6.20;99.90
11934;DHT22;6026;48.784;9.198;2023-12-14T03:10:18;6.20;99.90
11934;DHT22;6026;48.784;9.198;2023-12-14T03:12:44;6.20;99.90
11934;DHT22;6026;48.784;9.198;2023-12-14T03:17:37;6.20;99.90
11934;DHT22;6026;48.784;9.198;2023-12-14T03:20:03;6.20;99.90
11934;DHT22;6026;48.784;9.198;2023-12-14T03:22:30;6.20;99.90
11934;DHT22;6026;48.784;9.198;2023-12-14T03:24:56;6.20;99.90
11934;DHT22;6026;48.784;9.198;2023-12-14T03:27:21;6.20;99.90
11934;DHT22;6026;48.784;9.198;2023-12-14T03:29:48;6.30;99.90
11934;DHT22;6026;48.784;9.198;2023-12-14T03:32:14;6.30;99.90
11934;DHT22;6026;48.784;9.198;2023-12-14T03:34:39;6.30;99.90
11934;DHT22;6026;48.784;9.198;2023-12-14T03:37:06;6.30;99.90
11934;DHT22;6026;48.784;9.198;2023-12-14T03:39:31;6.30;99.90
11934;DHT22;6026;48.784;9.198;2023-12-14T03:41:57;6.30;99.90
11934;DHT22;6026;48.784;9.198;2023-12-14T03:44:22;6.30;99.90
11934;DHT22;6026;48.784;9.198;2023-12-14T03:46:49;6.30;99.90
11934;DHT22;6026;48.784;9.198;2023-12-14T03:49:15;6.30;99.90
11934;DHT22;6026;48.784;9.198;2023-12-14T03:51:40;6.30;99.90
11934;DHT22;6026;48.784;9.198;2023-12-14T03:54:06;6.30;99.90
11934;DHT22;6026;48.784;9.198;2023-12-14T03:56:31;6.20;99.90
11934;DHT22;6026;48.784;9.198;2023-12-14T03:58:57;6.20;99.90
11934;DHT22;6026;48.784;9.198;2023-12-14T04:01:23;6.20;99.90
11934;DHT22;6026;48.784;9.198;2023-12-14T04:03:48;6.20;99.90
11934;DHT22;6026;48.784;9.198;2023-12-14T04:06:14;6.20;99.90
11934;DHT22;6026;48.784;9.198;2023-12-14T04:08:41;6.20;99.90
11934;DHT22;6026;48.784;9.198;2023-12-14T04:11:06;6.20;99.90
11934;DHT22;6026;48.784;9.198;2023-12-14T04:13:33;6.20;99.90
11934;DHT22;6026;48.784;9.198;2023-12-14T04:15:58;6.30;99.90
11934;DHT22;6026;48.784;9.198;2023-12-14T04:18:24;6.20;99.90
11934;DHT22;6026;48.784;9.198;2023-12-14T04:20:49;6.30;99.90
11934;DHT22;6026;48.784;9.198;2023-12-14T04:23:15;6.30;99.90
11934;DHT22;6026;48.784;9.198;2023-12-14T04:25:41;6.30;99.90
11934;DHT22;6026;48.784;9.198;2023-12-14T04:28:06;6.30;99.90
11934;DHT22;6026;48.784;9.198;2023-12-14T04:30:32;6.30;99.90
11934;DHT22;6026;48.784;9.198;2023-12-14T04:32:57;6.30;99.90
11934;DHT22;6026;48.784;9.198;2023-12-14T04:35:23;6.30;99.90
11934;DHT22;6026;48.784;9.198;2023-12-14T04:37:49;6.30;99.90
11934;DHT22;6026;48.784;9.198;2023-12-14T04:40:15;6.30;99.90
11934;DHT22;6026;48.784;9.198;2023-12-14T04:42:40;6.30;99.90
11934;DHT22;6026;48.784;9.198;2023-12-14T04:45:06;6.30;99.90
11934;DHT22;6026;48.784;9.198;2023-12-14T04:47:32;6.30;99.90
11934;DHT22;6026;48.784;9.198;2023-12-14T04:49:57;6.30;99.90
11934;DHT22;6026;48.784;9.198;2023-12-14T04:52:23;6.30;99.90
11934;DHT22;6026;48.784;9.198;2023-12-14T04:54:49;6.40;99.90
11934;DHT22;6026;48.784;9.198;2023-12-14T04:57:14;6.40;99.90
11934;DHT22;6026;48.784;9.198;2023-12-14T04:59:43;6.40;99.90
11934;DHT22;6026;48.784;9.198;2023-12-14T05:02:09;6.40;99.90
11934;DHT22;6026;48.784;9.198;2023-12-14T05:04:34;6.40;99.90
11934;DHT22;6026;48.784;9.198;2023-12-14T05:07:00;6.40;99.90
11934;DHT22;6026;48.784;9.198;2023-12-14T05:09:25;6.40;99.90
11934;DHT22;6026;48.784;9.198;2023-12-14T05:11:51;6.40;99.90
11934;DHT22;6026;48.784;9.198;2023-12-14T05:14:17;6.40;99.90
11934;DHT22;6026;48.784;9.198;2023-12-14T05:16:43;6.40;99.90
11934;DHT22;6026;48.784;9.198;2023-12-14T05:19:09;6.50;99.90
11934;DHT22;6026;48.784;9.198;2023-12-14T05:21:34;6.50;99.90
11934;DHT22;6026;48.784;9.198;2023-12-14T05:24:00;6.50;99.90
11934;DHT22;6026;48.784;9.198;2023-12-14T05:26:26;6.50;99.90
11934;DHT22;6026;48.784;9.198;2023-12-14T05:28:51;6.50;99.90
11934;DHT22;6026;48.784;9.198;2023-12-14T05:31:17;6.50;99.90
11934;DHT22;6026;48.784;9.198;2023-12-14T05:33:43;6.50;99.90
11934;DHT22;6026;48.784;9.198;2023-12-14T05:36:09;6.50;99.90
11934;DHT22;6026;48.784;9.198;2023-12-14T05:38:39;6.60;99.90
11934;DHT22;6026;48.784;9.198;2023-12-14T05:41:05;6.60;99.90
11934;DHT22;6026;48.784;9.198;2023-12-14T05:43:31;6.60;99.90
11934;DHT22;6026;48.784;9.198;2023-12-14T05:45:56;6.70;99.90
11934;DHT22;6026;48.784;9.198;2023-12-14T05:48:22;6.70;99.90
11934;DHT22;6026;48.784;9.198;2023-12-14T05:50:48;6.70;99.90
11934;DHT22;6026;48.784;9.198;2023-12-14T05:53:13;6.70;99.90
11934;DHT22;6026;48.784;9.198;2023-12-14T05:55:39;6.70;99.90
11934;DHT22;6026;48.784;9.198;2023-12-14T05:58:06;6.80;99.90
11934;DHT22;6026;48.784;9.198;2023-12-14T06:00:33;6.80;99.90
11934;DHT22;6026;48.784;9.198;2023-12-14T06:03:00;6.70;99.90
11934;DHT22;6026;48.784;9.198;2023-12-14T06:05:25;6.70;99.90
11934;DHT22;6026;48.784;9.198;2023-12-14T06:07:51;6.70;99.90
11934;DHT22;6026;48.784;9.198;2023-12-14T06:10:17;6.70;99.90
11934;DHT22;6026;48.784;9.198;2023-12-14T06:12:42;6.70;99.90
11934;DHT22;6026;48.784;9.198;2023-12-14T06:15:08;6.70;99.90
11934;DHT22;6026;48.784;9.198;2023-12-14T06:17:34;6.70;99.90
11934;DHT22;6026;48.784;9.198;2023-12-14T06:20:00;6.70;99.90
11934;DHT22;6026;48.784;9.198;2023-12-14T06:22:25;6.70;99.90
11934;DHT22;6026;48.784;9.198;2023-12-14T06:24:51;6.60;99.90
11934;DHT22;6026;48.784;9.198;2023-12-14T06:27:17;6.70;99.90
11934;DHT22;6026;48.784;9.198;2023-12-14T06:29:43;6.60;99.90
11934;DHT22;6026;48.784;9.198;2023-12-14T06:32:08;6.70;99.90
11934;DHT22;6026;48.784;9.198;2023-12-14T06:34:34;6.60;99.90
11934;DHT22;6026;48.784;9.198;2023-12-14T06:36:59;6.60;99.90
11934;DHT22;6026;48.784;9.198;2023-12-14T06:39:26;6.60;99.90
11934;DHT22;6026;48.784;9.198;2023-12-14T06:41:54;6.70;99.90
11934;DHT22;6026;48.784;9.198;2023-12-14T06:44:20;6.60;99.90
11934;DHT22;6026;48.784;9.198;2023-12-14T06:46:46;6.60;99.90
11934;DHT22;6026;48.784;9.198;2023-12-14T06:49:11;6.60;99.90
11934;DHT22;6026;48.784;9.198;2023-12-14T06:51:37;6.60;99.90
11934;DHT22;6026;48.784;9.198;2023-12-14T06:54:03;6.60;99.90
11934;DHT22;6026;48.784;9.198;2023-12-14T06:56:28;6.60;99.90
11934;DHT22;6026;48.784;9.198;2023-12-14T06:58:54;6.70;99.90
11934;DHT22;6026;48.784;9.198;2023-12-14T07:01:19;6.70;99.90
11934;DHT22;6026;48.784;9.198;2023-12-14T07:03:45;6.70;99.90
11934;DHT22;6026;48.784;9.198;2023-12-14T07:06:15;6.70;99.90
11934;DHT22;6026;48.784;9.198;2023-12-14T07:08:41;6.70;99.90
11934;DHT22;6026;48.784;9.198;2023-12-14T07:11:08;6.80;99.90
11934;DHT22;6026;48.784;9.198;2023-12-14T07:13:33;6.80;99.90
11934;DHT22;6026;48.784;9.198;2023-12-14T07:16:08;6.80;99.90
11934;DHT22;6026;48.784;9.198;2023-12-14T07:18:35;6.80;99.90
11934;DHT22;6026;48.784;9.198;2023-12-14T07:21:01;6.80;99.90
11934;DHT22;6026;48.784;9.198;2023-12-14T07:23:27;6.80;99.90
11934;DHT22;6026;48.784;9.198;2023-12-14T07:25:53;6.80;99.90
11934;DHT22;6026;48.784;9.198;2023-12-14T07:28:18;6.80;99.90
11934;DHT22;6026;48.784;9.198;2023-12-14T07:30:45;6.80;99.90
11934;DHT22;6026;48.784;9.198;2023-12-14T07:33:11;6.80;99.90
11934;DHT22;6026;48.784;9.198;2023-12-14T07:35:37;6.80;99.90
11934;DHT22;6026;48.784;9.198;2023-12-14T07:38:02;6.80;99.90
11934;DHT22;6026;48.784;9.198;2023-12-14T07:40:28;6.80;99.90
11934;DHT22;6026;48.784;9.198;2023-12-14T07:42:54;6.80;99.90
11934;DHT22;6026;48.784;9.198;2023-12-14T07:45:19;6.80;99.90
11934;DHT22;6026;48.784;9.198;2023-12-14T07:47:45;6.80;99.90
11934;DHT22;6026;48.784;9.198;2023-12-14T07:50:12;6.80;99.90
11934;DHT22;6026;48.784;9.198;2023-12-14T07:52:38;6.80;99.90
11934;DHT22;6026;48.784;9.198;2023-12-14T07:55:05;6.80;99.90
11934;DHT22;6026;48.784;9.198;2023-12-14T07:57:30;6.80;99.90
11934;DHT22;6026;48.784;9.198;2023-12-14T07:59:56;6.90;99.90
11934;DHT22;6026;48.784;9.198;2023-12-14T08:02:22;6.90;99.90
11934;DHT22;6026;48.784;9.198;2023-12-14T08:04:48;7.00;99.90
11934;DHT22;6026;48.784;9.198;2023-12-14T08:07:13;7.00;99.90
11934;DHT22;6026;48.784;9.198;2023-12-14T08:09:39;7.10;99.90
11934;DHT22;6026;48.784;9.198;2023-12-14T08:12:04;7.20;99.90
11934;DHT22;6026;48.784;9.198;2023-12-14T08:14:32;7.20;99.90
11934;DHT22;6026;48.784;9.198;2023-12-14T08:16:59;7.20;99.90
11934;DHT22;6026;48.784;9.198;2023-12-14T08:19:25;7.30;99.90
11934;DHT22;6026;48.784;9.198;2023-12-14T08:21:51;7.20;99.90
11934;DHT22;6026;48.784;9.198;2023-12-14T08:24:16;7.30;99.90
11934;DHT22;6026;48.784;9.198;2023-12-14T08:26:42;7.30;99.90
11934;DHT22;6026;48.784;9.198;2023-12-14T08:29:08;7.40;99.90
11934;DHT22;6026;48.784;9.198;2023-12-14T08:31:34;7.40;99.90
11934;DHT22;6026;48.784;9.198;2023-12-14T08:34:00;7.40;99.90
11934;DHT22;6026;48.784;9.198;2023-12-14T08:36:25;7.50;99.90
11934;DHT22;6026;48.784;9.198;2023-12-14T08:38:51;7.40;99.90
11934;DHT22;6026;48.784;9.198;2023-12-14T08:41:16;7.40;99.90
11934;DHT22;6026;48.784;9.198;2023-12-14T08:43:42;7.50;99.90
11934;DHT22;6026;48.784;9.198;2023-12-14T08:46:09;7.40;99.90
11934;DHT22;6026;48.784;9.198;2023-12-14T08:48:35;7.50;99.90
11934;DHT22;6026;48.784;9.198;2023-12-14T08:51:01;7.40;99.90
11934;DHT22;6026;48.784;9.198;2023-12-14T08:53:27;7.50;99.90
11934;DHT22;6026;48.784;9.198;2023-12-14T08:55:53;7.50;99.90
11934;DHT22;6026;48.784;9.198;2023-12-14T08:58:19;7.60;99.90
11934;DHT22;6026;48.784;9.198;2023-12-14T09:00:44;7.70;99.90
11934;DHT22;6026;48.784;9.198;2023-12-14T09:03:10;7.70;99.90
11934;DHT22;6026;48.784;9.198;2023-12-14T09:05:36;7.70;99.90
11934;DHT22;6026;48.784;9.198;2023-12-14T09:08:02;7.80;99.90
11934;DHT22;6026;48.784;9.198;2023-12-14T09:10:28;7.90;99.90
11934;DHT22;6026;48.784;9.198;2023-12-14T09:12:54;7.90;99.90
11934;DHT22;6026;48.784;9.198;2023-12-14T09:15:19;8.00;99.90
11934;DHT22;6026;48.784;9.198;2023-12-14T09:17:45;8.00;99.90
11934;DHT22;6026;48.784;9.198;2023-12-14T09:20:11;8.00;99.90
11934;DHT22;6026;48.784;9.198;2023-12-14T09:22:37;8.30;99.90
11934;DHT22;6026;48.784;9.198;2023-12-14T09:25:02;8.40;99.90
11934;DHT22;6026;48.784;9.198;2023-12-14T09:27:29;8.50;99.90
11934;DHT22;6026;48.784;9.198;2023-12-14T09:29:55;8.50;99.90
11934;DHT22;6026;48.784;9.198;2023-12-14T09:32:21;8.60;99.90
11934;DHT22;6026;48.784;9.198;2023-12-14T09:34:46;8.50;99.90
11934;DHT22;6026;48.784;9.198;2023-12-14T09:37:12;8.50;99.90
11934;DHT22;6026;48.784;9.198;2023-12-14T09:39:39;8.60;99.90
11934;DHT22;6026;48.784;9.198;2023-12-14T09:42:07;8.50;99.90
11934;DHT22;6026;48.784;9.198;2023-12-14T09:44:37;8.60;99.90
11934;DHT22;6026;48.784;9.198;2023-12-14T09:47:03;8.70;99.90
11934;DHT22;6026;48.784;9.198;2023-12-14T09:49:30;8.80;99.90
11934;DHT22;6026;48.784;9.198;2023-12-14T09:51:59;8.70;99.90
11934;DHT22;6026;48.784;9.198;2023-12-14T09:54:26;8.70;99.90
11934;DHT22;6026;48.784;9.198;2023-12-14T09:56:51;8.70;99.90
11934;DHT22;6026;48.784;9.198;2023-12-14T09:59:18;8.60;99.90
11934;DHT22;6026;48.784;9.198;2023-12-14T10:01:44;8.60;99.90
11934;DHT22;6026;48.784;9.198;2023-12-14T10:04:10;8.70;99.90
11934;DHT22;6026;48.784;9.198;2023-12-14T10:06:37;8.80;99.90
11934;DHT22;6026;48.784;9.198;2023-12-14T10:09:03;8.80;99.90
11934;DHT22;6026;48.784;9.198;2023-12-14T10:11:30;8.90;99.90
11934;DHT22;6026;48.784;9.198;2023-12-14T10:13:55;9.00;99.90
11934;DHT22;6026;48.784;9.198;2023-12-14T10:16:31;9.10;99.90
11934;DHT22;6026;48.784;9.198;2023-12-14T10:18:58;9.20;99.90
11934;DHT22;6026;48.784;9.198;2023-12-14T10:21:26;9.20;99.90
11934;DHT22;6026;48.784;9.198;2023-12-14T10:23:52;9.40;99.90
11934;DHT22;6026;48.784;9.198;2023-12-14T10:26:17;9.50;99.90
11934;DHT22;6026;48.784;9.198;2023-12-14T10:28:43;9.60;99.90
11934;DHT22;6026;48.784;9.198;2023-12-14T10:31:09;9.80;99.90
11934;DHT22;6026;48.784;9.198;2023-12-14T10:33:35;9.90;99.90
11934;DHT22;6026;48.784;9.198;2023-12-14T10:36:01;10.00;99.90
11934;DHT22;6026;48.784;9.198;2023-12-14T10:38:28;10.10;99.90
11934;DHT22;6026;48.784;9.198;2023-12-14T10:40:55;10.40;99.90
11934;DHT22;6026;48.784;9.198;2023-12-14T10:43:22;10.70;99.90
11934;DHT22;6026;48.784;9.198;2023-12-14T10:45:48;10.70;99.90
11934;DHT22;6026;48.784;9.198;2023-12-14T10:48:13;10.80;99.90
11934;DHT22;6026;48.784;9.198;2023-12-14T10:50:42;10.80;99.90
11934;DHT22;6026;48.784;9.198;2023-12-14T10:53:08;10.80;99.90
11934;DHT22;6026;48.784;9.198;2023-12-14T10:55:41;10.70;99.90
11934;DHT22;6026;48.784;9.198;2023-12-14T10:58:09;10.60;99.90
11934;DHT22;6026;48.784;9.198;2023-12-14T11:00:35;10.50;99.90
11934;DHT22;6026;48.784;9.198;2023-12-14T11:03:04;10.40;99.90
11934;DHT22;6026;48.784;9.198;2023-12-14T11:05:32;10.40;99.90
11934;DHT22;6026;48.784;9.198;2023-12-14T11:08:05;10.20;99.90
11934;DHT22;6026;48.784;9.198;2023-12-14T11:10:43;10.20;99.90
11934;DHT22;6026;48.784;9.198;2023-12-14T11:13:17;10.30;99.90
11934;DHT22;6026;48.784;9.198;2023-12-14T11:15:48;10.20;99.90
11934;DHT22;6026;48.784;9.198;2023-12-14T11:21:00;10.20;99.90
11934;DHT22;6026;48.784;9.198;2023-12-14T11:23:30;10.20;99.90
11934;DHT22;6026;48.784;9.198;2023-12-14T11:26:04;10.10;99.90
11934;DHT22;6026;48.784;9.198;2023-12-14T11:28:31;10.10;99.90
11934;DHT22;6026;48.784;9.198;2023-12-14T11:30:57;9.90;99.90
11934;DHT22;6026;48.784;9.198;2023-12-14T11:33:23;9.90;99.90
11934;DHT22;6026;48.784;9.198;2023-12-14T11:35:51;9.80;99.90
11934;DHT22;6026;48.784;9.198;2023-12-14T11:38:18;9.80;99.90
11934;DHT22;6026;48.784;9.198;2023-12-14T11:40:47;9.90;99.90
11934;DHT22;6026;48.784;9.198;2023-12-14T11:43:13;10.00;99.90
11934;DHT22;6026;48.784;9.198;2023-12-14T11:45:41;10.00;99.90
11934;DHT22;6026;48.784;9.198;2023-12-14T11:48:08;10.00;99.90
11934;DHT22;6026;48.784;9.198;2023-12-14T11:50:36;10.10;99.90
11934;DHT22;6026;48.784;9.198;2023-12-14T11:53:03;10.10;99.90
11934;DHT22;6026;48.784;9.198;2023-12-14T11:55:30;10.10;99.90
11934;DHT22;6026;48.784;9.198;2023-12-14T11:57:57;10.10;99.90
11934;DHT22;6026;48.784;9.198;2023-12-14T12:00:24;10.10;99.90
11934;DHT22;6026;48.784;9.198;2023-12-14T12:02:51;10.00;99.90
11934;DHT22;6026;48.784;9.198;2023-12-14T12:05:16;10.00;99.90
11934;DHT22;6026;48.784;9.198;2023-12-14T12:07:45;9.90;99.90
11934;DHT22;6026;48.784;9.198;2023-12-14T12:10:11;9.90;99.90
11934;DHT22;6026;48.784;9.198;2023-12-14T12:12:37;9.80;99.90
11934;DHT22;6026;48.784;9.198;2023-12-14T12:15:04;9.80;99.90
11934;DHT22;6026;48.784;9.198;2023-12-14T12:17:29;9.80;99.90
11934;DHT22;6026;48.784;9.198;2023-12-14T12:19:59;9.70;99.90
11934;DHT22;6026;48.784;9.198;2023-12-14T12:22:24;9.80;99.90
11934;DHT22;6026;48.784;9.198;2023-12-14T12:24:50;9.70;99.90
11934;DHT22;6026;48.784;9.198;2023-12-14T12:27:15;9.70;99.90
11934;DHT22;6026;48.784;9.198;2023-12-14T12:29:41;9.60;99.90
11934;DHT22;6026;48.784;9.198;2023-12-14T12:32:06;9.50;99.90
11934;DHT22;6026;48.784;9.198;2023-12-14T12:34:32;9.50;99.90
11934;DHT22;6026;48.784;9.198;2023-12-14T12:36:57;9.40;99.90
11934;DHT22;6026;48.784;9.198;2023-12-14T12:39:24;9.40;99.90
11934;DHT22;6026;48.784;9.198;2023-12-14T12:41:50;9.20;99.90
11934;DHT22;6026;48.784;9.198;2023-12-14T12:44:16;9.20;99.90
11934;DHT22;6026;48.784;9.198;2023-12-14T12:46:42;9.10;99.90
11934;DHT22;6026;48.784;9.198;2023-12-14T12:49:07;9.10;99.90
11934;DHT22;6026;48.784;9.198;2023-12-14T12:51:33;9.10;99.90
11934;DHT22;6026;48.784;9.198;2023-12-14T12:53:59;9.10;99.90
11934;DHT22;6026;48.784;9.198;2023-12-14T12:56:28;9.10;99.90
11934;DHT22;6026;48.784;9.198;2023-12-14T12:58:54;9.10;99.90
11934;DHT22;6026;48.784;9.198;2023-12-14T13:01:23;9.10;99.90
11934;DHT22;6026;48.784;9.198;2023-12-14T13:03:55;9.10;99.90
11934;DHT22;6026;48.784;9.198;2023-12-14T13:06:24;9.00;99.90
11934;DHT22;6026;48.784;9.198;2023-12-14T13:08:51;9.10;99.90
11934;DHT22;6026;48.784;9.198;2023-12-14T13:11:16;9.10;99.90
11934;DHT22;6026;48.784;9.198;2023-12-14T13:13:42;9.00;99.90
11934;DHT22;6026;48.784;9.198;2023-12-14T13:16:09;8.90;99.90
11934;DHT22;6026;48.784;9.198;2023-12-14T13:18:35;8.90;99.90
11934;DHT22;6026;48.784;9.198;2023-12-14T13:21:01;8.70;99.90
11934;DHT22;6026;48.784;9.198;2023-12-14T13:23:26;8.60;99.90
11934;DHT22;6026;48.784;9.198;2023-12-14T13:25:52;8.50;99.90
11934;DHT22;6026;48.784;9.198;2023-12-14T13:28:17;8.40;99.90
11934;DHT22;6026;48.784;9.198;2023-12-14T13:30:43;8.30;99.90
11934;DHT22;6026;48.784;9.198;2023-12-14T13:33:08;8.30;99.90
11934;DHT22;6026;48.784;9.198;2023-12-14T13:35:37;8.20;99.90
11934;DHT22;6026;48.784;9.198;2023-12-14T13:38:02;8.20;99.90
11934;DHT22;6026;48.784;9.198;2023-12-14T13:40:28;8.10;99.90
11934;DHT22;6026;48.784;9.198;2023-12-14T13:42:54;8.10;99.90
11934;DHT22;6026;48.784;9.198;2023-12-14T13:45:19;8.00;99.90
11934;DHT22;6026;48.784;9.198;2023-12-14T13:47:45;8.00;99.90
11934;DHT22;6026;48.784;9.198;2023-12-14T13:50:12;7.90;99.90
11934;DHT22;6026;48.784;9.198;2023-12-14T13:52:37;7.80;99.90
11934;DHT22;6026;48.784;9.198;2023-12-14T13:55:03;7.80;99.90
11934;DHT22;6026;48.784;9.198;2023-12-14T13:57:29;7.70;99.90
11934;DHT22;6026;48.784;9.198;2023-12-14T13:59:54;7.70;99.90
11934;DHT22;6026;48.784;9.198;2023-12-14T14:02:20;7.60;99.90
11934;DHT22;6026;48.784;9.198;2023-12-14T14:04:45;7.70;99.90
11934;DHT22;6026;48.784;9.198;2023-12-14T14:07:11;7.60;99.90
11934;DHT22;6026;48.784;9.198;2023-12-14T14:09:36;7.60;99.90
11934;DHT22;6026;48.784;9.198;2023-12-14T14:12:02;7.50;99.90
11934;DHT22;6026;48.784;9.198;2023-12-14T14:14:29;7.60;99.90
11934;DHT22;6026;48.784;9.198;2023-12-14T14:16:55;7.50;99.90
11934;DHT22;6026;48.784;9.198;2023-12-14T14:19:20;7.50;99.90
11934;DHT22;6026;48.784;9.198;2023-12-14T14:21:46;7.50;99.90
11934;DHT22;6026;48.784;9.198;2023-12-14T14:24:13;7.50;99.90
11934;DHT22;6026;48.784;9.198;2023-12-14T14:26:38;7.50;99.90
11934;DHT22;6026;48.784;9.198;2023-12-14T14:29:04;7.50;99.90
11934;DHT22;6026;48.784;9.198;2023-12-14T14:31:29;7.50;99.90
11934;DHT22;6026;48.784;9.198;2023-12-14T14:33:58;7.50;99.90
11934;DHT22;6026;48.784;9.198;2023-12-14T14:36:25;7.50;99.90
11934;DHT22;6026;48.784;9.198;2023-12-14T14:38:50;7.50;99.90
11934;DHT22;6026;48.784;9.198;2023-12-14T14:41:19;7.50;99.90
11934;DHT22;6026;48.784;9.198;2023-12-14T14:43:45;7.50;99.90
11934;DHT22;6026;48.784;9.198;2023-12-14T14:46:11;7.50;99.90
11934;DHT22;6026;48.784;9.198;2023-12-14T14:48:37;7.50;99.90
11934;DHT22;6026;48.784;9.198;2023-12-14T14:51:03;7.50;99.90
11934;DHT22;6026;48.784;9.198;2023-12-14T14:53:29;7.40;99.90
11934;DHT22;6026;48.784;9.198;2023-12-14T14:55:55;7.50;99.90
11934;DHT22;6026;48.784;9.198;2023-12-14T14:58:21;7.50;99.90
11934;DHT22;6026;48.784;9.198;2023-12-14T15:00:47;7.50;99.90
11934;DHT22;6026;48.784;9.198;2023-12-14T15:03:13;7.50;99.90
11934;DHT22;6026;48.784;9.198;2023-12-14T15:05:39;7.50;99.90
11934;DHT22;6026;48.784;9.198;2023-12-14T15:08:06;7.50;99.90
11934;DHT22;6026;48.784;9.198;2023-12-14T15:10:35;7.50;99.90
11934;DHT22;6026;48.784;9.198;2023-12-14T15:13:00;7.50;99.90
11934;DHT22;6026;48.784;9.198;2023-12-14T15:15:26;7.40;99.90
11934;DHT22;6026;48.784;9.198;2023-12-14T15:17:51;7.50;99.90
11934;DHT22;6026;48.784;9.198;2023-12-14T15:20:17;7.50;99.90
11934;DHT22;6026;48.784;9.198;2023-12-14T15:22:43;7.50;99.90
11934;DHT22;6026;48.784;9.198;2023-12-14T15:25:08;7.50;99.90
11934;DHT22;6026;48.784;9.198;2023-12-14T15:27:34;7.40;99.90
11934;DHT22;6026;48.784;9.198;2023-12-14T15:30:00;7.40;99.90
11934;DHT22;6026;48.784;9.198;2023-12-14T15:32:26;7.40;99.90
11934;DHT22;6026;48.784;9.198;2023-12-14T15:34:51;7.40;99.90
11934;DHT22;6026;48.784;9.198;2023-12-14T15:37:17;7.40;99.90
11934;DHT22;6026;48.784;9.198;2023-12-14T15:39:43;7.40;99.90
11934;DHT22;6026;48.784;9.198;2023-12-14T15:42:15;7.40;99.90
11934;DHT22;6026;48.784;9.198;2023-12-14T15:44:41;7.40;99.90
11934;DHT22;6026;48.784;9.198;2023-12-14T15:47:07;7.40;99.90
11934;DHT22;6026;48.784;9.198;2023-12-14T15:49:32;7.40;99.90
11934;DHT22;6026;48.784;9.198;2023-12-14T15:51:58;7.40;99.90
11934;DHT22;6026;48.784;9.198;2023-12-14T15:54:23;7.30;99.90
11934;DHT22;6026;48.784;9.198;2023-12-14T15:56:49;7.40;99.90